FlightSource - Aviation Photo Database

World Wide Airport Lookup


Search by ICAO
Or
Search by City

FlightSource.ca - Aviation Photo Database - Port Hardy Airport Information
Airport Identification
Name: Port Hardy Airport
ICAO: CYZT
IATA: YZT
Airport Location
City: Port Hardy
Region: BC
Country: Canada
Continent: North America
Latitude: 50.6806
Longitude: -127.367
Airport Information
Type: Medium Airport
Elevation: 71 Feet ASL
Flight Status: CYZT
More Info: CYZT
Airport Weather    
Metar: CYZT 122100Z 10004KT 20SM FEW040 SCT077 BKN120 BKN180 08/05 A3046 RMK SC1AC2AC3AC1 SLP318
TAF:


Advertisement